sensor_id;sensor_type;location;lat;lon;timestamp;P1;durP1;ratioP1;P2;durP2;ratioP2
4553;SDS011;2289;48.316;15.174;2022-09-09T00:01:54;3.27;;;2.40;;
4553;SDS011;2289;48.316;15.174;2022-09-09T00:04:28;2.80;;;2.60;;
4553;SDS011;2289;48.316;15.174;2022-09-09T00:07:00;9.33;;;5.40;;
4553;SDS011;2289;48.316;15.174;2022-09-09T00:09:34;10.70;;;8.77;;
4553;SDS011;2289;48.316;15.174;2022-09-09T00:12:10;10.50;;;6.60;;
4553;SDS011;2289;48.316;15.174;2022-09-09T00:14:43;14.73;;;10.50;;
4553;SDS011;2289;48.316;15.174;2022-09-09T00:17:20;5.90;;;4.97;;
4553;SDS011;2289;48.316;15.174;2022-09-09T00:19:59;10.13;;;5.50;;
4553;SDS011;2289;48.316;15.174;2022-09-09T00:22:30;18.40;;;10.67;;
4553;SDS011;2289;48.316;15.174;2022-09-09T00:25:02;13.90;;;8.30;;
4553;SDS011;2289;48.316;15.174;2022-09-09T00:27:39;12.70;;;6.23;;
4553;SDS011;2289;48.316;15.174;2022-09-09T00:30:18;10.50;;;4.70;;
4553;SDS011;2289;48.316;15.174;2022-09-09T00:32:49;8.50;;;4.53;;
4553;SDS011;2289;48.316;15.174;2022-09-09T00:35:25;13.80;;;6.43;;
4553;SDS011;2289;48.316;15.174;2022-09-09T00:38:00;13.00;;;5.00;;
4553;SDS011;2289;48.316;15.174;2022-09-09T00:40:31;6.60;;;2.77;;
4553;SDS011;2289;48.316;15.174;2022-09-09T00:43:07;7.00;;;1.23;;
4553;SDS011;2289;48.316;15.174;2022-09-09T00:46:13;2.80;;;1.83;;
4553;SDS011;2289;48.316;15.174;2022-09-09T00:49:00;1.50;;;1.27;;
4553;SDS011;2289;48.316;15.174;2022-09-09T00:51:36;4.93;;;1.40;;
4553;SDS011;2289;48.316;15.174;2022-09-09T00:54:16;2.80;;;1.10;;
4553;SDS011;2289;48.316;15.174;2022-09-09T00:57:00;3.50;;;1.87;;
4553;SDS011;2289;48.316;15.174;2022-09-09T00:59:42;2.30;;;1.53;;
4553;SDS011;2289;48.316;15.174;2022-09-09T01:02:21;1.10;;;1.00;;
4553;SDS011;2289;48.316;15.174;2022-09-09T01:04:56;1.40;;;1.30;;
4553;SDS011;2289;48.316;15.174;2022-09-09T01:07:28;6.93;;;1.83;;
4553;SDS011;2289;48.316;15.174;2022-09-09T01:09:58;7.17;;;2.50;;
4553;SDS011;2289;48.316;15.174;2022-09-09T01:12:30;13.70;;;2.70;;
4553;SDS011;2289;48.316;15.174;2022-09-09T01:15:07;5.90;;;2.40;;
4553;SDS011;2289;48.316;15.174;2022-09-09T01:17:44;7.53;;;1.90;;
4553;SDS011;2289;48.316;15.174;2022-09-09T01:20:18;3.23;;;1.43;;
4553;SDS011;2289;48.316;15.174;2022-09-09T01:22:57;4.37;;;2.40;;
4553;SDS011;2289;48.316;15.174;2022-09-09T01:28:41;2.13;;;1.27;;
4553;SDS011;2289;48.316;15.174;2022-09-09T01:31:17;7.20;;;1.47;;
4553;SDS011;2289;48.316;15.174;2022-09-09T01:33:47;2.77;;;1.70;;
4553;SDS011;2289;48.316;15.174;2022-09-09T01:36:18;1.90;;;1.67;;
4553;SDS011;2289;48.316;15.174;2022-09-09T01:38:49;1.30;;;1.20;;
4553;SDS011;2289;48.316;15.174;2022-09-09T01:41:19;1.13;;;1.03;;
4553;SDS011;2289;48.316;15.174;2022-09-09T01:43:47;2.50;;;0.90;;
4553;SDS011;2289;48.316;15.174;2022-09-09T01:46:17;2.57;;;1.30;;
4553;SDS011;2289;48.316;15.174;2022-09-09T01:48:46;1.00;;;0.80;;
4553;SDS011;2289;48.316;15.174;2022-09-09T01:51:14;1.13;;;1.03;;
4553;SDS011;2289;48.316;15.174;2022-09-09T01:53:43;1.27;;;1.00;;
4553;SDS011;2289;48.316;15.174;2022-09-09T01:56:14;4.03;;;1.60;;
4553;SDS011;2289;48.316;15.174;2022-09-09T01:58:57;1.37;;;1.27;;
4553;SDS011;2289;48.316;15.174;2022-09-09T02:01:35;1.63;;;1.37;;
4553;SDS011;2289;48.316;15.174;2022-09-09T02:04:13;3.83;;;1.20;;
4553;SDS011;2289;48.316;15.174;2022-09-09T02:06:49;5.10;;;1.33;;
4553;SDS011;2289;48.316;15.174;2022-09-09T02:09:20;3.10;;;1.30;;
4553;SDS011;2289;48.316;15.174;2022-09-09T02:11:53;3.07;;;1.20;;
4553;SDS011;2289;48.316;15.174;2022-09-09T02:14:27;3.33;;;2.07;;
4553;SDS011;2289;48.316;15.174;2022-09-09T02:16:57;6.33;;;1.60;;
4553;SDS011;2289;48.316;15.174;2022-09-09T02:19:27;2.00;;;1.30;;
4553;SDS011;2289;48.316;15.174;2022-09-09T02:21:59;3.03;;;1.10;;
4553;SDS011;2289;48.316;15.174;2022-09-09T02:24:31;3.60;;;1.30;;
4553;SDS011;2289;48.316;15.174;2022-09-09T02:27:06;1.13;;;1.03;;
4553;SDS011;2289;48.316;15.174;2022-09-09T02:29:36;1.93;;;0.97;;
4553;SDS011;2289;48.316;15.174;2022-09-09T02:32:08;1.43;;;1.33;;
4553;SDS011;2289;48.316;15.174;2022-09-09T02:34:39;3.40;;;1.40;;
4553;SDS011;2289;48.316;15.174;2022-09-09T02:37:10;2.83;;;1.50;;
4553;SDS011;2289;48.316;15.174;2022-09-09T02:39:39;4.00;;;1.40;;
4553;SDS011;2289;48.316;15.174;2022-09-09T02:42:09;1.67;;;1.57;;
4553;SDS011;2289;48.316;15.174;2022-09-09T02:44:38;1.20;;;1.10;;
4553;SDS011;2289;48.316;15.174;2022-09-09T02:47:22;1.93;;;1.27;;
4553;SDS011;2289;48.316;15.174;2022-09-09T02:49:57;1.10;;;1.00;;
4553;SDS011;2289;48.316;15.174;2022-09-09T02:52:45;5.07;;;1.77;;
4553;SDS011;2289;48.316;15.174;2022-09-09T02:55:22;1.33;;;1.17;;
4553;SDS011;2289;48.316;15.174;2022-09-09T02:57:52;1.23;;;1.13;;
4553;SDS011;2289;48.316;15.174;2022-09-09T03:00:23;1.93;;;1.00;;
4553;SDS011;2289;48.316;15.174;2022-09-09T03:02:52;1.33;;;1.23;;
4553;SDS011;2289;48.316;15.174;2022-09-09T03:05:20;2.63;;;1.10;;
4553;SDS011;2289;48.316;15.174;2022-09-09T03:07:49;2.40;;;1.40;;
4553;SDS011;2289;48.316;15.174;2022-09-09T03:10:17;4.60;;;1.27;;
4553;SDS011;2289;48.316;15.174;2022-09-09T03:12:45;8.00;;;1.13;;
4553;SDS011;2289;48.316;15.174;2022-09-09T03:15:15;6.87;;;1.20;;
4553;SDS011;2289;48.316;15.174;2022-09-09T03:17:43;1.47;;;1.37;;
4553;SDS011;2289;48.316;15.174;2022-09-09T03:20:11;2.73;;;1.10;;
4553;SDS011;2289;48.316;15.174;2022-09-09T03:22:40;1.20;;;1.10;;
4553;SDS011;2289;48.316;15.174;2022-09-09T03:25:08;1.43;;;1.30;;
4553;SDS011;2289;48.316;15.174;2022-09-09T03:27:36;1.80;;;1.20;;
4553;SDS011;2289;48.316;15.174;2022-09-09T03:30:05;1.60;;;1.23;;
4553;SDS011;2289;48.316;15.174;2022-09-09T03:32:35;1.30;;;1.20;;
4553;SDS011;2289;48.316;15.174;2022-09-09T03:35:03;1.20;;;1.10;;
4553;SDS011;2289;48.316;15.174;2022-09-09T03:37:31;3.67;;;1.37;;
4553;SDS011;2289;48.316;15.174;2022-09-09T03:40:00;2.93;;;1.13;;
4553;SDS011;2289;48.316;15.174;2022-09-09T03:42:28;3.80;;;1.50;;
4553;SDS011;2289;48.316;15.174;2022-09-09T03:44:57;1.30;;;1.20;;
4553;SDS011;2289;48.316;15.174;2022-09-09T03:47:25;1.87;;;1.20;;
4553;SDS011;2289;48.316;15.174;2022-09-09T03:49:55;8.43;;;2.03;;
4553;SDS011;2289;48.316;15.174;2022-09-09T03:52:23;10.27;;;1.60;;
4553;SDS011;2289;48.316;15.174;2022-09-09T03:54:53;4.20;;;1.53;;
4553;SDS011;2289;48.316;15.174;2022-09-09T03:57:21;1.50;;;1.27;;
4553;SDS011;2289;48.316;15.174;2022-09-09T03:59:50;1.10;;;1.00;;
4553;SDS011;2289;48.316;15.174;2022-09-09T04:02:18;1.33;;;1.23;;
4553;SDS011;2289;48.316;15.174;2022-09-09T04:04:46;2.60;;;1.13;;
4553;SDS011;2289;48.316;15.174;2022-09-09T04:07:16;2.97;;;1.10;;
4553;SDS011;2289;48.316;15.174;2022-09-09T04:09:44;1.53;;;1.40;;
4553;SDS011;2289;48.316;15.174;2022-09-09T04:12:12;1.40;;;1.30;;
4553;SDS011;2289;48.316;15.174;2022-09-09T04:14:40;1.80;;;1.47;;
4553;SDS011;2289;48.316;15.174;2022-09-09T04:17:08;6.73;;;1.20;;
4553;SDS011;2289;48.316;15.174;2022-09-09T04:19:37;1.17;;;1.07;;
4553;SDS011;2289;48.316;15.174;2022-09-09T04:22:05;5.50;;;3.60;;
4553;SDS011;2289;48.316;15.174;2022-09-09T04:24:35;5.60;;;3.37;;
4553;SDS011;2289;48.316;15.174;2022-09-09T04:27:03;3.90;;;1.60;;
4553;SDS011;2289;48.316;15.174;2022-09-09T04:29:31;1.80;;;1.53;;
4553;SDS011;2289;48.316;15.174;2022-09-09T04:32:00;1.30;;;1.20;;
4553;SDS011;2289;48.316;15.174;2022-09-09T04:34:28;3.13;;;0.90;;
4553;SDS011;2289;48.316;15.174;2022-09-09T04:36:57;1.53;;;1.40;;
4553;SDS011;2289;48.316;15.174;2022-09-09T04:39:26;2.00;;;1.80;;
4553;SDS011;2289;48.316;15.174;2022-09-09T04:41:56;3.30;;;2.07;;
4553;SDS011;2289;48.316;15.174;2022-09-09T04:44:24;6.73;;;4.70;;
4553;SDS011;2289;48.316;15.174;2022-09-09T04:46:53;6.37;;;5.27;;
4553;SDS011;2289;48.316;15.174;2022-09-09T04:49:21;10.13;;;7.00;;
4553;SDS011;2289;48.316;15.174;2022-09-09T04:51:49;7.50;;;5.50;;
4553;SDS011;2289;48.316;15.174;2022-09-09T04:54:18;7.90;;;5.47;;
4553;SDS011;2289;48.316;15.174;2022-09-09T04:56:46;9.07;;;4.80;;
4553;SDS011;2289;48.316;15.174;2022-09-09T04:59:15;4.77;;;4.30;;
4553;SDS011;2289;48.316;15.174;2022-09-09T05:01:44;15.80;;;11.30;;
4553;SDS011;2289;48.316;15.174;2022-09-09T05:04:12;19.07;;;10.60;;
4553;SDS011;2289;48.316;15.174;2022-09-09T05:06:42;17.33;;;12.23;;
4553;SDS011;2289;48.316;15.174;2022-09-09T05:09:11;20.03;;;11.10;;
4553;SDS011;2289;48.316;15.174;2022-09-09T05:11:39;15.07;;;9.50;;
4553;SDS011;2289;48.316;15.174;2022-09-09T05:14:08;6.37;;;4.80;;
4553;SDS011;2289;48.316;15.174;2022-09-09T05:16:39;5.73;;;3.67;;
4553;SDS011;2289;48.316;15.174;2022-09-09T05:19:07;4.67;;;4.10;;
4553;SDS011;2289;48.316;15.174;2022-09-09T05:21:35;5.93;;;4.60;;
4553;SDS011;2289;48.316;15.174;2022-09-09T05:24:04;6.73;;;3.97;;
4553;SDS011;2289;48.316;15.174;2022-09-09T05:26:32;5.43;;;4.67;;
4553;SDS011;2289;48.316;15.174;2022-09-09T05:29:00;5.93;;;5.33;;
4553;SDS011;2289;48.316;15.174;2022-09-09T05:31:29;5.10;;;3.90;;
4553;SDS011;2289;48.316;15.174;2022-09-09T05:33:59;4.77;;;3.40;;
4553;SDS011;2289;48.316;15.174;2022-09-09T05:36:27;5.10;;;4.30;;
4553;SDS011;2289;48.316;15.174;2022-09-09T05:38:55;8.20;;;4.33;;
4553;SDS011;2289;48.316;15.174;2022-09-09T05:41:23;9.87;;;7.73;;
4553;SDS011;2289;48.316;15.174;2022-09-09T05:43:51;11.43;;;8.90;;
4553;SDS011;2289;48.316;15.174;2022-09-09T05:46:20;11.97;;;7.23;;
4553;SDS011;2289;48.316;15.174;2022-09-09T05:48:50;5.47;;;3.80;;
4553;SDS011;2289;48.316;15.174;2022-09-09T05:51:22;2.90;;;2.53;;
4553;SDS011;2289;48.316;15.174;2022-09-09T05:53:52;3.37;;;2.83;;
4553;SDS011;2289;48.316;15.174;2022-09-09T05:56:22;8.83;;;3.10;;
4553;SDS011;2289;48.316;15.174;2022-09-09T05:58:51;3.30;;;2.80;;
4553;SDS011;2289;48.316;15.174;2022-09-09T06:01:21;2.87;;;2.40;;
4553;SDS011;2289;48.316;15.174;2022-09-09T06:03:51;6.00;;;4.20;;
4553;SDS011;2289;48.316;15.174;2022-09-09T06:06:22;4.93;;;2.97;;
4553;SDS011;2289;48.316;15.174;2022-09-09T06:08:53;6.43;;;2.97;;
4553;SDS011;2289;48.316;15.174;2022-09-09T06:11:25;4.43;;;4.03;;
4553;SDS011;2289;48.316;15.174;2022-09-09T06:13:55;13.67;;;4.60;;
4553;SDS011;2289;48.316;15.174;2022-09-09T06:16:24;3.47;;;3.17;;
4553;SDS011;2289;48.316;15.174;2022-09-09T06:18:55;6.53;;;2.63;;
4553;SDS011;2289;48.316;15.174;2022-09-09T06:21:26;3.33;;;1.77;;
4553;SDS011;2289;48.316;15.174;2022-09-09T06:23:54;1.70;;;1.33;;
4553;SDS011;2289;48.316;15.174;2022-09-09T06:26:26;1.40;;;1.30;;
4553;SDS011;2289;48.316;15.174;2022-09-09T06:28:57;2.90;;;2.03;;
4553;SDS011;2289;48.316;15.174;2022-09-09T06:31:26;1.83;;;1.30;;
4553;SDS011;2289;48.316;15.174;2022-09-09T06:33:57;1.80;;;1.70;;
4553;SDS011;2289;48.316;15.174;2022-09-09T06:36:29;1.40;;;1.23;;
4553;SDS011;2289;48.316;15.174;2022-09-09T06:38:58;1.70;;;1.47;;
4553;SDS011;2289;48.316;15.174;2022-09-09T06:41:28;1.57;;;1.33;;
4553;SDS011;2289;48.316;15.174;2022-09-09T06:43:57;1.40;;;1.30;;
4553;SDS011;2289;48.316;15.174;2022-09-09T06:46:25;2.40;;;2.13;;
4553;SDS011;2289;48.316;15.174;2022-09-09T06:48:55;3.47;;;1.50;;
4553;SDS011;2289;48.316;15.174;2022-09-09T06:51:25;2.27;;;1.27;;
4553;SDS011;2289;48.316;15.174;2022-09-09T06:53:56;1.37;;;1.10;;
4553;SDS011;2289;48.316;15.174;2022-09-09T06:56:26;2.10;;;1.70;;
4553;SDS011;2289;48.316;15.174;2022-09-09T06:58:56;3.73;;;1.40;;
4553;SDS011;2289;48.316;15.174;2022-09-09T07:01:26;2.73;;;1.57;;
4553;SDS011;2289;48.316;15.174;2022-09-09T07:03:57;2.53;;;1.53;;
4553;SDS011;2289;48.316;15.174;2022-09-09T07:06:30;1.57;;;1.47;;
4553;SDS011;2289;48.316;15.174;2022-09-09T07:09:02;3.63;;;1.20;;
4553;SDS011;2289;48.316;15.174;2022-09-09T07:11:37;6.13;;;1.70;;
4553;SDS011;2289;48.316;15.174;2022-09-09T07:14:06;2.33;;;1.30;;
4553;SDS011;2289;48.316;15.174;2022-09-09T07:16:35;3.27;;;1.67;;
4553;SDS011;2289;48.316;15.174;2022-09-09T07:19:04;2.00;;;1.40;;
4553;SDS011;2289;48.316;15.174;2022-09-09T07:21:34;1.70;;;1.53;;
4553;SDS011;2289;48.316;15.174;2022-09-09T07:24:02;2.57;;;1.60;;
4553;SDS011;2289;48.316;15.174;2022-09-09T07:26:33;2.60;;;1.80;;
4553;SDS011;2289;48.316;15.174;2022-09-09T07:29:02;1.77;;;1.10;;
4553;SDS011;2289;48.316;15.174;2022-09-09T07:31:31;1.90;;;1.20;;
4553;SDS011;2289;48.316;15.174;2022-09-09T07:34:00;2.70;;;1.20;;
4553;SDS011;2289;48.316;15.174;2022-09-09T07:36:29;1.63;;;1.43;;
4553;SDS011;2289;48.316;15.174;2022-09-09T07:39:01;2.47;;;1.87;;
4553;SDS011;2289;48.316;15.174;2022-09-09T07:41:31;2.03;;;1.77;;
4553;SDS011;2289;48.316;15.174;2022-09-09T07:44:03;3.37;;;1.47;;
4553;SDS011;2289;48.316;15.174;2022-09-09T07:50:51;1.90;;;1.37;;
4553;SDS011;2289;48.316;15.174;2022-09-09T07:53:23;1.63;;;1.50;;
4553;SDS011;2289;48.316;15.174;2022-09-09T07:55:54;2.00;;;1.63;;
4553;SDS011;2289;48.316;15.174;2022-09-09T07:58:22;2.33;;;1.50;;
4553;SDS011;2289;48.316;15.174;2022-09-09T08:00:50;2.90;;;2.00;;
4553;SDS011;2289;48.316;15.174;2022-09-09T08:03:21;5.20;;;1.87;;
4553;SDS011;2289;48.316;15.174;2022-09-09T08:05:50;3.33;;;1.97;;
4553;SDS011;2289;48.316;15.174;2022-09-09T08:08:19;4.60;;;2.10;;
4553;SDS011;2289;48.316;15.174;2022-09-09T08:10:49;2.57;;;2.13;;
4553;SDS011;2289;48.316;15.174;2022-09-09T08:13:21;2.20;;;2.00;;
4553;SDS011;2289;48.316;15.174;2022-09-09T08:15:50;2.37;;;1.77;;
4553;SDS011;2289;48.316;15.174;2022-09-09T08:18:18;2.67;;;2.10;;
4553;SDS011;2289;48.316;15.174;2022-09-09T08:20:47;3.10;;;2.50;;
4553;SDS011;2289;48.316;15.174;2022-09-09T08:23:15;1.80;;;1.57;;
4553;SDS011;2289;48.316;15.174;2022-09-09T08:25:44;1.80;;;1.70;;
4553;SDS011;2289;48.316;15.174;2022-09-09T08:28:12;1.80;;;1.70;;
4553;SDS011;2289;48.316;15.174;2022-09-09T08:30:41;1.77;;;1.67;;
4553;SDS011;2289;48.316;15.174;2022-09-09T08:33:09;2.40;;;2.03;;
4553;SDS011;2289;48.316;15.174;2022-09-09T08:35:38;1.30;;;1.20;;
4553;SDS011;2289;48.316;15.174;2022-09-09T08:38:06;1.93;;;1.77;;
4553;SDS011;2289;48.316;15.174;2022-09-09T08:40:37;3.20;;;2.20;;
4553;SDS011;2289;48.316;15.174;2022-09-09T08:43:11;4.70;;;1.63;;
4553;SDS011;2289;48.316;15.174;2022-09-09T08:45:43;2.90;;;1.90;;
4553;SDS011;2289;48.316;15.174;2022-09-09T08:48:22;1.93;;;1.83;;
4553;SDS011;2289;48.316;15.174;2022-09-09T08:50:57;2.47;;;2.07;;
4553;SDS011;2289;48.316;15.174;2022-09-09T08:53:29;4.00;;;2.20;;
4553;SDS011;2289;48.316;15.174;2022-09-09T08:56:08;2.90;;;2.50;;
4553;SDS011;2289;48.316;15.174;2022-09-09T08:58:40;3.10;;;2.47;;
4553;SDS011;2289;48.316;15.174;2022-09-09T09:04:37;2.07;;;1.83;;
4553;SDS011;2289;48.316;15.174;2022-09-09T09:07:13;2.33;;;2.13;;
4553;SDS011;2289;48.316;15.174;2022-09-09T09:09:52;2.40;;;2.20;;
4553;SDS011;2289;48.316;15.174;2022-09-09T09:12:26;3.03;;;1.80;;
4553;SDS011;2289;48.316;15.174;2022-09-09T09:14:56;3.60;;;2.10;;
4553;SDS011;2289;48.316;15.174;2022-09-09T09:17:28;2.57;;;2.20;;
4553;SDS011;2289;48.316;15.174;2022-09-09T09:20:02;1.70;;;1.60;;
4553;SDS011;2289;48.316;15.174;2022-09-09T09:22:36;2.20;;;2.00;;
4553;SDS011;2289;48.316;15.174;2022-09-09T09:25:09;2.70;;;2.03;;
4553;SDS011;2289;48.316;15.174;2022-09-09T09:27:45;2.47;;;1.63;;
4553;SDS011;2289;48.316;15.174;2022-09-09T09:30:19;2.83;;;1.73;;
4553;SDS011;2289;48.316;15.174;2022-09-09T09:33:01;5.07;;;1.20;;
4553;SDS011;2289;48.316;15.174;2022-09-09T09:35:33;3.63;;;1.60;;
4553;SDS011;2289;48.316;15.174;2022-09-09T09:38:12;2.40;;;1.30;;
4553;SDS011;2289;48.316;15.174;2022-09-09T09:41:07;4.70;;;1.70;;
4553;SDS011;2289;48.316;15.174;2022-09-09T09:43:40;4.40;;;1.80;;
4553;SDS011;2289;48.316;15.174;2022-09-09T09:46:18;1.90;;;1.40;;
4553;SDS011;2289;48.316;15.174;2022-09-09T09:48:57;1.63;;;1.53;;
4553;SDS011;2289;48.316;15.174;2022-09-09T09:51:29;1.93;;;1.73;;
4553;SDS011;2289;48.316;15.174;2022-09-09T09:54:09;3.03;;;2.00;;
4553;SDS011;2289;48.316;15.174;2022-09-09T09:56:43;1.70;;;1.60;;
4553;SDS011;2289;48.316;15.174;2022-09-09T09:59:23;1.60;;;1.50;;
4553;SDS011;2289;48.316;15.174;2022-09-09T10:02:14;1.60;;;1.50;;
4553;SDS011;2289;48.316;15.174;2022-09-09T10:04:44;1.37;;;1.20;;
4553;SDS011;2289;48.316;15.174;2022-09-09T10:07:17;2.37;;;1.43;;
4553;SDS011;2289;48.316;15.174;2022-09-09T10:09:47;1.80;;;1.40;;
4553;SDS011;2289;48.316;15.174;2022-09-09T10:12:22;1.50;;;1.40;;
4553;SDS011;2289;48.316;15.174;2022-09-09T10:14:59;2.13;;;1.80;;
4553;SDS011;2289;48.316;15.174;2022-09-09T10:17:33;2.20;;;2.00;;
4553;SDS011;2289;48.316;15.174;2022-09-09T10:20:13;2.10;;;1.70;;
4553;SDS011;2289;48.316;15.174;2022-09-09T10:22:50;2.43;;;1.20;;
4553;SDS011;2289;48.316;15.174;2022-09-09T10:25:35;1.90;;;1.30;;
4553;SDS011;2289;48.316;15.174;2022-09-09T10:28:26;1.10;;;1.00;;
4553;SDS011;2289;48.316;15.174;2022-09-09T10:31:07;1.07;;;0.97;;
4553;SDS011;2289;48.316;15.174;2022-09-09T10:33:43;1.97;;;1.10;;
4553;SDS011;2289;48.316;15.174;2022-09-09T10:36:17;3.20;;;1.30;;
4553;SDS011;2289;48.316;15.174;2022-09-09T10:38:53;9.90;;;1.97;;
4553;SDS011;2289;48.316;15.174;2022-09-09T10:41:34;1.20;;;1.00;;
4553;SDS011;2289;48.316;15.174;2022-09-09T10:44:14;1.90;;;1.13;;
4553;SDS011;2289;48.316;15.174;2022-09-09T10:49:56;2.30;;;1.47;;
4553;SDS011;2289;48.316;15.174;2022-09-09T10:52:35;1.10;;;1.00;;
4553;SDS011;2289;48.316;15.174;2022-09-09T10:55:10;1.40;;;1.17;;
4553;SDS011;2289;48.316;15.174;2022-09-09T10:57:43;1.77;;;0.90;;
4553;SDS011;2289;48.316;15.174;2022-09-09T11:00:16;1.37;;;1.00;;
4553;SDS011;2289;48.316;15.174;2022-09-09T11:02:47;1.80;;;1.07;;
4553;SDS011;2289;48.316;15.174;2022-09-09T11:05:19;1.33;;;1.20;;
4553;SDS011;2289;48.316;15.174;2022-09-09T11:07:53;1.63;;;1.20;;
4553;SDS011;2289;48.316;15.174;2022-09-09T11:10:27;3.33;;;1.13;;
4553;SDS011;2289;48.316;15.174;2022-09-09T11:13:03;2.37;;;1.03;;
4553;SDS011;2289;48.316;15.174;2022-09-09T11:15:38;3.70;;;1.00;;
4553;SDS011;2289;48.316;15.174;2022-09-09T11:18:10;1.17;;;1.07;;
4553;SDS011;2289;48.316;15.174;2022-09-09T11:20:42;2.80;;;1.33;;
4553;SDS011;2289;48.316;15.174;2022-09-09T11:23:11;1.40;;;1.30;;
4553;SDS011;2289;48.316;15.174;2022-09-09T11:25:43;1.20;;;1.10;;
4553;SDS011;2289;48.316;15.174;2022-09-09T11:31:16;1.20;;;1.10;;
4553;SDS011;2289;48.316;15.174;2022-09-09T11:33:59;4.33;;;1.20;;
4553;SDS011;2289;48.316;15.174;2022-09-09T11:36:46;2.40;;;1.13;;
4553;SDS011;2289;48.316;15.174;2022-09-09T11:39:27;4.10;;;1.50;;
4553;SDS011;2289;48.316;15.174;2022-09-09T11:42:17;1.50;;;1.03;;
4553;SDS011;2289;48.316;15.174;2022-09-09T11:44:47;2.30;;;1.83;;
4553;SDS011;2289;48.316;15.174;2022-09-09T11:47:20;3.23;;;1.40;;
4553;SDS011;2289;48.316;15.174;2022-09-09T11:49:53;2.73;;;1.30;;
4553;SDS011;2289;48.316;15.174;2022-09-09T11:52:22;0.90;;;0.90;;
4553;SDS011;2289;48.316;15.174;2022-09-09T11:54:54;1.20;;;1.10;;
4553;SDS011;2289;48.316;15.174;2022-09-09T11:57:26;1.23;;;1.00;;
4553;SDS011;2289;48.316;15.174;2022-09-09T11:59:59;1.73;;;1.60;;
4553;SDS011;2289;48.316;15.174;2022-09-09T12:02:28;1.37;;;1.27;;
4553;SDS011;2289;48.316;15.174;2022-09-09T12:04:59;1.63;;;1.13;;
4553;SDS011;2289;48.316;15.174;2022-09-09T12:07:38;4.20;;;1.73;;
4553;SDS011;2289;48.316;15.174;2022-09-09T12:10:20;6.77;;;2.47;;
4553;SDS011;2289;48.316;15.174;2022-09-09T12:12:51;2.73;;;1.60;;
4553;SDS011;2289;48.316;15.174;2022-09-09T12:15:24;1.57;;;1.30;;
4553;SDS011;2289;48.316;15.174;2022-09-09T12:17:56;1.37;;;1.10;;
4553;SDS011;2289;48.316;15.174;2022-09-09T12:20:31;1.53;;;1.43;;
4553;SDS011;2289;48.316;15.174;2022-09-09T12:23:07;1.87;;;1.43;;
4553;SDS011;2289;48.316;15.174;2022-09-09T12:25:57;2.97;;;2.23;;
4553;SDS011;2289;48.316;15.174;2022-09-09T12:28:37;2.60;;;2.30;;
4553;SDS011;2289;48.316;15.174;2022-09-09T12:31:11;2.60;;;2.40;;
4553;SDS011;2289;48.316;15.174;2022-09-09T12:33:45;4.60;;;1.97;;
4553;SDS011;2289;48.316;15.174;2022-09-09T12:36:14;3.10;;;1.73;;
4553;SDS011;2289;48.316;15.174;2022-09-09T12:38:45;1.97;;;1.63;;
4553;SDS011;2289;48.316;15.174;2022-09-09T12:41:21;4.27;;;2.20;;
4553;SDS011;2289;48.316;15.174;2022-09-09T12:44:02;2.97;;;1.50;;
4553;SDS011;2289;48.316;15.174;2022-09-09T12:46:33;2.10;;;1.77;;
4553;SDS011;2289;48.316;15.174;2022-09-09T12:49:04;2.10;;;1.90;;
4553;SDS011;2289;48.316;15.174;2022-09-09T12:51:33;3.10;;;2.37;;
4553;SDS011;2289;48.316;15.174;2022-09-09T12:54:02;4.33;;;2.27;;
4553;SDS011;2289;48.316;15.174;2022-09-09T12:56:32;3.30;;;2.10;;
4553;SDS011;2289;48.316;15.174;2022-09-09T12:59:03;2.30;;;2.10;;
4553;SDS011;2289;48.316;15.174;2022-09-09T13:01:32;2.20;;;2.00;;
4553;SDS011;2289;48.316;15.174;2022-09-09T13:04:01;1.83;;;1.73;;
4553;SDS011;2289;48.316;15.174;2022-09-09T13:06:32;2.60;;;2.40;;
4553;SDS011;2289;48.316;15.174;2022-09-09T13:09:01;2.10;;;1.90;;
4553;SDS011;2289;48.316;15.174;2022-09-09T13:11:30;4.30;;;2.60;;
4553;SDS011;2289;48.316;15.174;2022-09-09T13:14:02;2.60;;;2.40;;
4553;SDS011;2289;48.316;15.174;2022-09-09T13:16:32;3.30;;;2.73;;
4553;SDS011;2289;48.316;15.174;2022-09-09T13:19:08;4.50;;;2.87;;
4553;SDS011;2289;48.316;15.174;2022-09-09T13:21:41;2.90;;;2.30;;
4553;SDS011;2289;48.316;15.174;2022-09-09T13:24:22;3.40;;;2.70;;
4553;SDS011;2289;48.316;15.174;2022-09-09T13:26:56;3.17;;;2.83;;
4553;SDS011;2289;48.316;15.174;2022-09-09T13:29:26;4.83;;;2.93;;
4553;SDS011;2289;48.316;15.174;2022-09-09T13:32:02;5.77;;;3.00;;
4553;SDS011;2289;48.316;15.174;2022-09-09T13:34:33;3.50;;;3.10;;
4553;SDS011;2289;48.316;15.174;2022-09-09T13:37:03;5.70;;;2.63;;
4553;SDS011;2289;48.316;15.174;2022-09-09T13:39:33;4.43;;;3.20;;
4553;SDS011;2289;48.316;15.174;2022-09-09T13:42:03;4.90;;;2.97;;
4553;SDS011;2289;48.316;15.174;2022-09-09T13:44:35;5.73;;;2.50;;
4553;SDS011;2289;48.316;15.174;2022-09-09T13:47:06;4.17;;;3.10;;
4553;SDS011;2289;48.316;15.174;2022-09-09T13:49:45;3.57;;;3.27;;
4553;SDS011;2289;48.316;15.174;2022-09-09T13:52:14;3.93;;;3.57;;
4553;SDS011;2289;48.316;15.174;2022-09-09T13:54:46;4.37;;;3.50;;
4553;SDS011;2289;48.316;15.174;2022-09-09T13:57:16;3.57;;;2.70;;
4553;SDS011;2289;48.316;15.174;2022-09-09T13:59:46;3.47;;;3.17;;
4553;SDS011;2289;48.316;15.174;2022-09-09T14:02:32;3.23;;;2.50;;
4553;SDS011;2289;48.316;15.174;2022-09-09T14:05:02;3.03;;;2.40;;
4553;SDS011;2289;48.316;15.174;2022-09-09T14:07:30;3.60;;;3.30;;
4553;SDS011;2289;48.316;15.174;2022-09-09T14:09:59;3.43;;;3.17;;
4553;SDS011;2289;48.316;15.174;2022-09-09T14:12:28;3.73;;;2.50;;
4553;SDS011;2289;48.316;15.174;2022-09-09T14:14:57;3.17;;;2.63;;
4553;SDS011;2289;48.316;15.174;2022-09-09T14:17:26;2.83;;;2.63;;
4553;SDS011;2289;48.316;15.174;2022-09-09T14:19:57;6.63;;;2.87;;
4553;SDS011;2289;48.316;15.174;2022-09-09T14:22:26;3.00;;;2.00;;
4553;SDS011;2289;48.316;15.174;2022-09-09T14:24:58;3.17;;;2.87;;
4553;SDS011;2289;48.316;15.174;2022-09-09T14:27:26;48.10;;;25.63;;
4553;SDS011;2289;48.316;15.174;2022-09-09T14:29:58;35.30;;;19.80;;
4553;SDS011;2289;48.316;15.174;2022-09-09T14:32:27;23.97;;;13.70;;
4553;SDS011;2289;48.316;15.174;2022-09-09T14:34:55;17.93;;;10.23;;
4553;SDS011;2289;48.316;15.174;2022-09-09T14:37:24;7.10;;;5.10;;
4553;SDS011;2289;48.316;15.174;2022-09-09T14:39:52;8.47;;;5.40;;
4553;SDS011;2289;48.316;15.174;2022-09-09T14:42:22;4.37;;;3.47;;
4553;SDS011;2289;48.316;15.174;2022-09-09T14:44:51;5.37;;;4.10;;
4553;SDS011;2289;48.316;15.174;2022-09-09T14:47:20;4.10;;;3.23;;
4553;SDS011;2289;48.316;15.174;2022-09-09T14:49:49;8.10;;;3.37;;
4553;SDS011;2289;48.316;15.174;2022-09-09T14:52:21;5.67;;;4.80;;
4553;SDS011;2289;48.316;15.174;2022-09-09T14:54:52;5.00;;;4.57;;
4553;SDS011;2289;48.316;15.174;2022-09-09T14:57:23;4.20;;;3.80;;
4553;SDS011;2289;48.316;15.174;2022-09-09T14:59:51;4.37;;;3.97;;
4553;SDS011;2289;48.316;15.174;2022-09-09T15:02:24;12.33;;;9.57;;
4553;SDS011;2289;48.316;15.174;2022-09-09T15:04:54;11.50;;;8.13;;
4553;SDS011;2289;48.316;15.174;2022-09-09T15:07:24;8.97;;;6.70;;
4553;SDS011;2289;48.316;15.174;2022-09-09T15:09:53;10.07;;;6.40;;
4553;SDS011;2289;48.316;15.174;2022-09-09T15:12:21;5.73;;;4.60;;
4553;SDS011;2289;48.316;15.174;2022-09-09T15:14:51;3.87;;;2.90;;
4553;SDS011;2289;48.316;15.174;2022-09-09T15:17:21;6.50;;;3.70;;
4553;SDS011;2289;48.316;15.174;2022-09-09T15:19:54;2.87;;;2.30;;
4553;SDS011;2289;48.316;15.174;2022-09-09T15:22:23;2.17;;;1.97;;
4553;SDS011;2289;48.316;15.174;2022-09-09T15:24:51;2.90;;;2.00;;
4553;SDS011;2289;48.316;15.174;2022-09-09T15:27:19;15.13;;;8.93;;
4553;SDS011;2289;48.316;15.174;2022-09-09T15:29:49;12.27;;;6.33;;
4553;SDS011;2289;48.316;15.174;2022-09-09T15:32:20;14.87;;;7.90;;
4553;SDS011;2289;48.316;15.174;2022-09-09T15:34:50;6.77;;;4.27;;
4553;SDS011;2289;48.316;15.174;2022-09-09T15:37:21;9.10;;;3.43;;
4553;SDS011;2289;48.316;15.174;2022-09-09T15:39:50;3.67;;;2.40;;
4553;SDS011;2289;48.316;15.174;2022-09-09T15:42:18;4.87;;;3.00;;
4553;SDS011;2289;48.316;15.174;2022-09-09T15:44:46;3.57;;;3.27;;
4553;SDS011;2289;48.316;15.174;2022-09-09T15:47:17;8.30;;;2.57;;